sensor_id;sensor_type;location;lat;lon;timestamp;P1;durP1;ratioP1;P2;durP2;ratioP2
26620;SDS011;14253;44.840;10.444;2023-03-16T00:00:47;11.23;;;6.78;;
26620;SDS011;14253;44.840;10.444;2023-03-16T00:03:13;9.65;;;6.53;;
26620;SDS011;14253;44.840;10.444;2023-03-16T00:05:46;11.50;;;7.07;;
26620;SDS011;14253;44.840;10.444;2023-03-16T00:08:13;9.95;;;6.70;;
26620;SDS011;14253;44.840;10.444;2023-03-16T00:10:40;8.90;;;6.25;;
26620;SDS011;14253;44.840;10.444;2023-03-16T00:13:17;10.98;;;7.00;;
26620;SDS011;14253;44.840;10.444;2023-03-16T00:15:51;10.10;;;6.72;;
26620;SDS011;14253;44.840;10.444;2023-03-16T00:18:19;12.27;;;6.22;;
26620;SDS011;14253;44.840;10.444;2023-03-16T00:20:48;10.25;;;6.68;;
26620;SDS011;14253;44.840;10.444;2023-03-16T00:23:26;12.52;;;8.15;;
26620;SDS011;14253;44.840;10.444;2023-03-16T00:25:56;8.60;;;5.43;;
26620;SDS011;14253;44.840;10.444;2023-03-16T00:30:51;8.70;;;5.38;;
26620;SDS011;14253;44.840;10.444;2023-03-16T00:33:17;9.25;;;6.00;;
26620;SDS011;14253;44.840;10.444;2023-03-16T00:35:46;8.95;;;5.72;;
26620;SDS011;14253;44.840;10.444;2023-03-16T00:38:16;11.52;;;6.00;;
26620;SDS011;14253;44.840;10.444;2023-03-16T00:40:43;9.02;;;6.07;;
26620;SDS011;14253;44.840;10.444;2023-03-16T00:43:11;9.18;;;5.70;;
26620;SDS011;14253;44.840;10.444;2023-03-16T00:45:44;15.05;;;6.05;;
26620;SDS011;14253;44.840;10.444;2023-03-16T00:48:11;13.80;;;6.90;;
26620;SDS011;14253;44.840;10.444;2023-03-16T00:50:39;15.63;;;6.95;;
26620;SDS011;14253;44.840;10.444;2023-03-16T00:53:08;8.98;;;5.90;;
26620;SDS011;14253;44.840;10.444;2023-03-16T00:55:34;14.23;;;5.90;;
26620;SDS011;14253;44.840;10.444;2023-03-16T00:58:00;11.43;;;6.40;;
26620;SDS011;14253;44.840;10.444;2023-03-16T01:00:29;9.50;;;5.93;;
26620;SDS011;14253;44.840;10.444;2023-03-16T01:02:55;13.98;;;7.13;;
26620;SDS011;14253;44.840;10.444;2023-03-16T01:05:21;12.90;;;6.32;;
26620;SDS011;14253;44.840;10.444;2023-03-16T01:07:47;12.93;;;6.65;;
26620;SDS011;14253;44.840;10.444;2023-03-16T01:10:14;11.95;;;6.68;;
26620;SDS011;14253;44.840;10.444;2023-03-16T01:12:41;13.55;;;6.00;;
26620;SDS011;14253;44.840;10.444;2023-03-16T01:15:09;9.18;;;6.45;;
26620;SDS011;14253;44.840;10.444;2023-03-16T01:17:36;7.53;;;5.63;;
26620;SDS011;14253;44.840;10.444;2023-03-16T01:20:02;9.82;;;6.25;;
26620;SDS011;14253;44.840;10.444;2023-03-16T01:22:32;10.65;;;6.22;;
26620;SDS011;14253;44.840;10.444;2023-03-16T01:25:00;7.88;;;5.63;;
26620;SDS011;14253;44.840;10.444;2023-03-16T01:27:26;11.85;;;6.82;;
26620;SDS011;14253;44.840;10.444;2023-03-16T01:29:52;10.98;;;6.47;;
26620;SDS011;14253;44.840;10.444;2023-03-16T01:32:18;10.23;;;5.88;;
26620;SDS011;14253;44.840;10.444;2023-03-16T01:34:45;12.05;;;7.10;;
26620;SDS011;14253;44.840;10.444;2023-03-16T01:37:11;9.60;;;6.45;;
26620;SDS011;14253;44.840;10.444;2023-03-16T01:39:56;10.43;;;7.25;;
26620;SDS011;14253;44.840;10.444;2023-03-16T01:42:22;14.88;;;8.02;;
26620;SDS011;14253;44.840;10.444;2023-03-16T01:44:50;17.33;;;8.85;;
26620;SDS011;14253;44.840;10.444;2023-03-16T01:47:20;13.25;;;8.93;;
26620;SDS011;14253;44.840;10.444;2023-03-16T01:49:47;15.40;;;8.60;;
26620;SDS011;14253;44.840;10.444;2023-03-16T01:52:24;13.25;;;9.05;;
26620;SDS011;14253;44.840;10.444;2023-03-16T01:54:59;13.48;;;8.15;;
26620;SDS011;14253;44.840;10.444;2023-03-16T01:57:34;15.38;;;8.55;;
26620;SDS011;14253;44.840;10.444;2023-03-16T02:02:39;15.02;;;9.00;;
26620;SDS011;14253;44.840;10.444;2023-03-16T02:05:13;15.50;;;9.15;;
26620;SDS011;14253;44.840;10.444;2023-03-16T02:07:47;13.35;;;9.05;;
26620;SDS011;14253;44.840;10.444;2023-03-16T02:12:43;11.15;;;7.82;;
26620;SDS011;14253;44.840;10.444;2023-03-16T02:15:10;12.13;;;8.32;;
26620;SDS011;14253;44.840;10.444;2023-03-16T02:17:38;11.02;;;7.80;;
26620;SDS011;14253;44.840;10.444;2023-03-16T02:22:52;12.60;;;8.18;;
26620;SDS011;14253;44.840;10.444;2023-03-16T02:25:20;16.23;;;7.72;;
26620;SDS011;14253;44.840;10.444;2023-03-16T02:30:45;14.60;;;7.15;;
26620;SDS011;14253;44.840;10.444;2023-03-16T02:33:12;12.52;;;7.80;;
26620;SDS011;14253;44.840;10.444;2023-03-16T02:35:42;10.43;;;7.82;;
26620;SDS011;14253;44.840;10.444;2023-03-16T02:38:08;10.60;;;7.07;;
26620;SDS011;14253;44.840;10.444;2023-03-16T02:40:41;10.75;;;7.00;;
26620;SDS011;14253;44.840;10.444;2023-03-16T02:43:15;9.50;;;6.28;;
26620;SDS011;14253;44.840;10.444;2023-03-16T02:45:55;11.27;;;6.85;;
26620;SDS011;14253;44.840;10.444;2023-03-16T02:48:35;12.80;;;5.47;;
26620;SDS011;14253;44.840;10.444;2023-03-16T02:51:10;8.57;;;5.63;;
26620;SDS011;14253;44.840;10.444;2023-03-16T02:53:36;8.10;;;5.72;;
26620;SDS011;14253;44.840;10.444;2023-03-16T02:56:02;9.82;;;5.63;;
26620;SDS011;14253;44.840;10.444;2023-03-16T02:58:31;6.75;;;4.40;;
26620;SDS011;14253;44.840;10.444;2023-03-16T03:00:59;7.32;;;4.20;;
26620;SDS011;14253;44.840;10.444;2023-03-16T03:03:25;5.60;;;4.15;;
26620;SDS011;14253;44.840;10.444;2023-03-16T03:05:51;6.18;;;3.38;;
26620;SDS011;14253;44.840;10.444;2023-03-16T03:08:17;5.28;;;3.30;;
26620;SDS011;14253;44.840;10.444;2023-03-16T03:10:46;4.68;;;3.38;;
26620;SDS011;14253;44.840;10.444;2023-03-16T03:13:12;4.55;;;2.85;;
26620;SDS011;14253;44.840;10.444;2023-03-16T03:15:39;7.28;;;3.53;;
26620;SDS011;14253;44.840;10.444;2023-03-16T03:18:08;5.03;;;3.22;;
26620;SDS011;14253;44.840;10.444;2023-03-16T03:20:34;5.35;;;3.00;;
26620;SDS011;14253;44.840;10.444;2023-03-16T03:23:00;6.20;;;2.70;;
26620;SDS011;14253;44.840;10.444;2023-03-16T03:25:27;5.95;;;3.40;;
26620;SDS011;14253;44.840;10.444;2023-03-16T03:27:53;4.53;;;2.58;;
26620;SDS011;14253;44.840;10.444;2023-03-16T03:30:21;8.18;;;3.40;;
26620;SDS011;14253;44.840;10.444;2023-03-16T03:32:48;10.65;;;3.80;;
26620;SDS011;14253;44.840;10.444;2023-03-16T03:35:18;5.32;;;3.08;;
26620;SDS011;14253;44.840;10.444;2023-03-16T03:37:46;4.90;;;2.88;;
26620;SDS011;14253;44.840;10.444;2023-03-16T03:40:14;5.40;;;3.15;;
26620;SDS011;14253;44.840;10.444;2023-03-16T03:42:43;5.13;;;2.90;;
26620;SDS011;14253;44.840;10.444;2023-03-16T03:45:10;4.35;;;2.90;;
26620;SDS011;14253;44.840;10.444;2023-03-16T03:47:38;5.57;;;2.85;;
26620;SDS011;14253;44.840;10.444;2023-03-16T03:50:08;4.93;;;2.78;;
26620;SDS011;14253;44.840;10.444;2023-03-16T03:52:44;5.00;;;2.95;;
26620;SDS011;14253;44.840;10.444;2023-03-16T03:55:11;5.82;;;2.83;;
26620;SDS011;14253;44.840;10.444;2023-03-16T03:57:37;6.97;;;3.30;;
26620;SDS011;14253;44.840;10.444;2023-03-16T04:00:04;4.18;;;2.47;;
26620;SDS011;14253;44.840;10.444;2023-03-16T04:02:38;6.57;;;3.28;;
26620;SDS011;14253;44.840;10.444;2023-03-16T04:05:10;5.97;;;3.47;;
26620;SDS011;14253;44.840;10.444;2023-03-16T04:07:36;5.50;;;3.30;;
26620;SDS011;14253;44.840;10.444;2023-03-16T04:10:06;4.28;;;3.33;;
26620;SDS011;14253;44.840;10.444;2023-03-16T04:12:36;8.93;;;3.42;;
26620;SDS011;14253;44.840;10.444;2023-03-16T04:15:04;5.45;;;3.15;;
26620;SDS011;14253;44.840;10.444;2023-03-16T04:17:37;6.07;;;3.60;;
26620;SDS011;14253;44.840;10.444;2023-03-16T04:20:09;6.28;;;4.28;;
26620;SDS011;14253;44.840;10.444;2023-03-16T04:22:40;7.72;;;4.32;;
26620;SDS011;14253;44.840;10.444;2023-03-16T04:25:09;7.05;;;3.90;;
26620;SDS011;14253;44.840;10.444;2023-03-16T04:27:42;6.75;;;4.28;;
26620;SDS011;14253;44.840;10.444;2023-03-16T04:30:10;5.75;;;3.78;;
26620;SDS011;14253;44.840;10.444;2023-03-16T04:32:42;7.22;;;3.97;;
26620;SDS011;14253;44.840;10.444;2023-03-16T04:35:09;7.95;;;4.30;;
26620;SDS011;14253;44.840;10.444;2023-03-16T04:37:43;9.70;;;5.47;;
26620;SDS011;14253;44.840;10.444;2023-03-16T04:40:09;9.15;;;4.88;;
26620;SDS011;14253;44.840;10.444;2023-03-16T04:42:47;6.85;;;4.82;;
26620;SDS011;14253;44.840;10.444;2023-03-16T04:45:17;7.25;;;5.10;;
26620;SDS011;14253;44.840;10.444;2023-03-16T04:47:45;8.63;;;4.80;;
26620;SDS011;14253;44.840;10.444;2023-03-16T04:50:11;7.75;;;4.38;;
26620;SDS011;14253;44.840;10.444;2023-03-16T04:52:39;9.27;;;5.78;;
26620;SDS011;14253;44.840;10.444;2023-03-16T04:55:06;8.95;;;4.55;;
26620;SDS011;14253;44.840;10.444;2023-03-16T04:57:33;5.95;;;3.97;;
26620;SDS011;14253;44.840;10.444;2023-03-16T04:59:59;8.38;;;4.45;;
26620;SDS011;14253;44.840;10.444;2023-03-16T05:02:35;7.55;;;4.22;;
26620;SDS011;14253;44.840;10.444;2023-03-16T05:05:01;5.20;;;3.67;;
26620;SDS011;14253;44.840;10.444;2023-03-16T05:07:29;10.13;;;4.93;;
26620;SDS011;14253;44.840;10.444;2023-03-16T05:09:56;6.53;;;4.53;;
26620;SDS011;14253;44.840;10.444;2023-03-16T05:12:22;5.47;;;4.00;;
26620;SDS011;14253;44.840;10.444;2023-03-16T05:14:53;9.68;;;4.32;;
26620;SDS011;14253;44.840;10.444;2023-03-16T05:17:48;6.07;;;4.18;;
26620;SDS011;14253;44.840;10.444;2023-03-16T05:20:15;8.38;;;3.83;;
26620;SDS011;14253;44.840;10.444;2023-03-16T05:22:50;5.82;;;3.47;;
26620;SDS011;14253;44.840;10.444;2023-03-16T05:25:21;6.15;;;4.10;;
26620;SDS011;14253;44.840;10.444;2023-03-16T05:27:51;6.75;;;4.07;;
26620;SDS011;14253;44.840;10.444;2023-03-16T05:30:59;7.85;;;4.30;;
26620;SDS011;14253;44.840;10.444;2023-03-16T05:33:29;8.48;;;4.55;;
26620;SDS011;14253;44.840;10.444;2023-03-16T05:36:04;8.25;;;3.95;;
26620;SDS011;14253;44.840;10.444;2023-03-16T05:38:32;9.40;;;5.25;;
26620;SDS011;14253;44.840;10.444;2023-03-16T05:40:58;6.32;;;4.22;;
26620;SDS011;14253;44.840;10.444;2023-03-16T05:43:52;5.53;;;3.75;;
26620;SDS011;14253;44.840;10.444;2023-03-16T05:46:21;9.43;;;4.10;;
26620;SDS011;14253;44.840;10.444;2023-03-16T05:48:49;5.75;;;4.20;;
26620;SDS011;14253;44.840;10.444;2023-03-16T05:51:17;9.00;;;4.30;;
26620;SDS011;14253;44.840;10.444;2023-03-16T05:53:47;5.35;;;4.05;;
26620;SDS011;14253;44.840;10.444;2023-03-16T05:56:24;8.05;;;4.60;;
26620;SDS011;14253;44.840;10.444;2023-03-16T05:58:52;7.85;;;4.50;;
26620;SDS011;14253;44.840;10.444;2023-03-16T06:01:20;5.72;;;3.95;;
26620;SDS011;14253;44.840;10.444;2023-03-16T06:03:48;6.88;;;3.95;;
26620;SDS011;14253;44.840;10.444;2023-03-16T06:06:19;6.30;;;4.00;;
26620;SDS011;14253;44.840;10.444;2023-03-16T06:08:56;7.60;;;4.82;;
26620;SDS011;14253;44.840;10.444;2023-03-16T06:11:24;6.45;;;4.18;;
26620;SDS011;14253;44.840;10.444;2023-03-16T06:13:50;5.63;;;4.07;;
26620;SDS011;14253;44.840;10.444;2023-03-16T06:16:16;7.72;;;4.28;;
26620;SDS011;14253;44.840;10.444;2023-03-16T06:18:43;7.78;;;4.47;;
26620;SDS011;14253;44.840;10.444;2023-03-16T06:21:10;9.27;;;3.90;;
26620;SDS011;14253;44.840;10.444;2023-03-16T06:23:36;7.63;;;4.75;;
26620;SDS011;14253;44.840;10.444;2023-03-16T06:26:04;13.65;;;5.93;;
26620;SDS011;14253;44.840;10.444;2023-03-16T06:28:33;21.33;;;5.57;;
26620;SDS011;14253;44.840;10.444;2023-03-16T06:30:59;9.63;;;4.60;;
26620;SDS011;14253;44.840;10.444;2023-03-16T06:33:32;10.18;;;4.75;;
26620;SDS011;14253;44.840;10.444;2023-03-16T06:35:58;9.02;;;4.32;;
26620;SDS011;14253;44.840;10.444;2023-03-16T06:38:31;10.48;;;4.20;;
26620;SDS011;14253;44.840;10.444;2023-03-16T06:41:16;12.68;;;4.63;;
26620;SDS011;14253;44.840;10.444;2023-03-16T06:43:44;14.10;;;4.63;;
26620;SDS011;14253;44.840;10.444;2023-03-16T06:46:10;7.18;;;4.03;;
26620;SDS011;14253;44.840;10.444;2023-03-16T06:48:37;14.15;;;5.05;;
26620;SDS011;14253;44.840;10.444;2023-03-16T06:51:03;10.77;;;4.03;;
26620;SDS011;14253;44.840;10.444;2023-03-16T06:53:33;8.38;;;3.90;;
26620;SDS011;14253;44.840;10.444;2023-03-16T06:55:59;6.57;;;3.63;;
26620;SDS011;14253;44.840;10.444;2023-03-16T06:58:28;6.38;;;3.47;;
26620;SDS011;14253;44.840;10.444;2023-03-16T07:00:59;6.57;;;3.80;;
26620;SDS011;14253;44.840;10.444;2023-03-16T07:03:42;7.35;;;3.80;;
26620;SDS011;14253;44.840;10.444;2023-03-16T07:06:18;10.85;;;3.83;;
26620;SDS011;14253;44.840;10.444;2023-03-16T07:08:44;5.60;;;3.40;;
26620;SDS011;14253;44.840;10.444;2023-03-16T07:11:11;6.65;;;3.40;;
26620;SDS011;14253;44.840;10.444;2023-03-16T07:13:43;6.68;;;3.08;;
26620;SDS011;14253;44.840;10.444;2023-03-16T07:16:09;5.55;;;3.45;;
26620;SDS011;14253;44.840;10.444;2023-03-16T07:18:35;4.72;;;3.10;;
26620;SDS011;14253;44.840;10.444;2023-03-16T07:21:07;6.72;;;3.15;;
26620;SDS011;14253;44.840;10.444;2023-03-16T07:23:34;6.18;;;3.60;;
26620;SDS011;14253;44.840;10.444;2023-03-16T07:26:03;3.88;;;2.40;;
26620;SDS011;14253;44.840;10.444;2023-03-16T07:28:36;4.97;;;2.40;;
26620;SDS011;14253;44.840;10.444;2023-03-16T07:31:04;7.78;;;2.83;;
26620;SDS011;14253;44.840;10.444;2023-03-16T07:33:36;4.95;;;2.60;;
26620;SDS011;14253;44.840;10.444;2023-03-16T07:36:05;9.93;;;3.30;;
26620;SDS011;14253;44.840;10.444;2023-03-16T07:38:37;11.15;;;3.10;;
26620;SDS011;14253;44.840;10.444;2023-03-16T07:41:04;9.63;;;3.53;;
26620;SDS011;14253;44.840;10.444;2023-03-16T07:43:32;6.75;;;3.13;;
26620;SDS011;14253;44.840;10.444;2023-03-16T07:45:59;43.55;;;5.35;;
26620;SDS011;14253;44.840;10.444;2023-03-16T07:48:26;8.48;;;2.85;;
26620;SDS011;14253;44.840;10.444;2023-03-16T07:50:58;6.28;;;2.83;;
26620;SDS011;14253;44.840;10.444;2023-03-16T07:53:25;8.68;;;2.88;;
26620;SDS011;14253;44.840;10.444;2023-03-16T07:56:06;4.50;;;3.28;;
26620;SDS011;14253;44.840;10.444;2023-03-16T07:58:38;8.10;;;3.35;;
26620;SDS011;14253;44.840;10.444;2023-03-16T08:01:04;6.03;;;3.03;;
26620;SDS011;14253;44.840;10.444;2023-03-16T08:03:30;8.10;;;2.65;;
26620;SDS011;14253;44.840;10.444;2023-03-16T08:06:09;5.60;;;3.00;;
26620;SDS011;14253;44.840;10.444;2023-03-16T08:08:40;8.25;;;2.97;;
26620;SDS011;14253;44.840;10.444;2023-03-16T08:11:25;8.75;;;2.65;;
26620;SDS011;14253;44.840;10.444;2023-03-16T08:14:03;8.43;;;2.83;;
26620;SDS011;14253;44.840;10.444;2023-03-16T08:17:04;9.98;;;3.30;;
26620;SDS011;14253;44.840;10.444;2023-03-16T08:19:32;9.63;;;2.90;;
26620;SDS011;14253;44.840;10.444;2023-03-16T08:22:02;5.45;;;2.67;;
26620;SDS011;14253;44.840;10.444;2023-03-16T08:24:36;4.10;;;2.78;;
26620;SDS011;14253;44.840;10.444;2023-03-16T08:27:05;7.95;;;2.72;;
26620;SDS011;14253;44.840;10.444;2023-03-16T08:29:32;7.05;;;3.13;;
26620;SDS011;14253;44.840;10.444;2023-03-16T08:31:58;5.65;;;2.97;;
26620;SDS011;14253;44.840;10.444;2023-03-16T08:34:30;6.95;;;3.58;;
26620;SDS011;14253;44.840;10.444;2023-03-16T08:36:57;6.68;;;3.80;;
26620;SDS011;14253;44.840;10.444;2023-03-16T08:39:24;7.97;;;3.28;;
26620;SDS011;14253;44.840;10.444;2023-03-16T08:41:51;7.35;;;4.10;;
26620;SDS011;14253;44.840;10.444;2023-03-16T08:44:24;6.03;;;4.28;;
26620;SDS011;14253;44.840;10.444;2023-03-16T08:46:51;5.70;;;3.65;;
26620;SDS011;14253;44.840;10.444;2023-03-16T08:49:17;6.05;;;3.55;;
26620;SDS011;14253;44.840;10.444;2023-03-16T08:51:47;4.88;;;3.70;;
26620;SDS011;14253;44.840;10.444;2023-03-16T08:54:13;4.45;;;3.22;;
26620;SDS011;14253;44.840;10.444;2023-03-16T08:56:40;5.60;;;3.55;;
26620;SDS011;14253;44.840;10.444;2023-03-16T08:59:06;5.35;;;3.40;;
26620;SDS011;14253;44.840;10.444;2023-03-16T09:01:33;11.80;;;4.43;;
26620;SDS011;14253;44.840;10.444;2023-03-16T09:03:59;8.15;;;5.10;;
26620;SDS011;14253;44.840;10.444;2023-03-16T09:06:25;7.90;;;5.22;;
26620;SDS011;14253;44.840;10.444;2023-03-16T09:08:51;7.13;;;5.88;;
26620;SDS011;14253;44.840;10.444;2023-03-16T09:11:18;11.90;;;7.28;;
26620;SDS011;14253;44.840;10.444;2023-03-16T09:13:46;14.38;;;6.95;;
26620;SDS011;14253;44.840;10.444;2023-03-16T09:16:13;11.70;;;7.80;;
26620;SDS011;14253;44.840;10.444;2023-03-16T09:18:40;13.00;;;6.55;;
26620;SDS011;14253;44.840;10.444;2023-03-16T09:21:08;11.25;;;7.63;;
26620;SDS011;14253;44.840;10.444;2023-03-16T09:23:37;9.90;;;7.10;;
26620;SDS011;14253;44.840;10.444;2023-03-16T09:26:09;12.38;;;7.63;;
26620;SDS011;14253;44.840;10.444;2023-03-16T09:28:36;12.27;;;6.63;;
26620;SDS011;14253;44.840;10.444;2023-03-16T09:31:06;8.57;;;6.72;;
26620;SDS011;14253;44.840;10.444;2023-03-16T09:33:34;13.18;;;8.05;;
26620;SDS011;14253;44.840;10.444;2023-03-16T09:36:00;11.00;;;7.05;;
26620;SDS011;14253;44.840;10.444;2023-03-16T09:38:27;9.68;;;6.63;;
26620;SDS011;14253;44.840;10.444;2023-03-16T09:40:58;8.32;;;6.80;;
26620;SDS011;14253;44.840;10.444;2023-03-16T09:43:50;8.95;;;7.05;;
26620;SDS011;14253;44.840;10.444;2023-03-16T09:46:33;9.10;;;6.90;;
26620;SDS011;14253;44.840;10.444;2023-03-16T09:49:07;10.68;;;6.22;;
26620;SDS011;14253;44.840;10.444;2023-03-16T09:51:43;8.55;;;5.78;;
26620;SDS011;14253;44.840;10.444;2023-03-16T09:54:16;9.45;;;6.10;;
26620;SDS011;14253;44.840;10.444;2023-03-16T09:57:03;9.57;;;6.03;;
26620;SDS011;14253;44.840;10.444;2023-03-16T09:59:34;6.20;;;4.43;;
26620;SDS011;14253;44.840;10.444;2023-03-16T10:05:09;7.28;;;4.13;;
26620;SDS011;14253;44.840;10.444;2023-03-16T10:10:46;11.88;;;5.25;;
26620;SDS011;14253;44.840;10.444;2023-03-16T10:16:37;9.10;;;3.73;;
26620;SDS011;14253;44.840;10.444;2023-03-16T10:21:46;8.75;;;4.50;;
26620;SDS011;14253;44.840;10.444;2023-03-16T10:24:36;8.77;;;4.20;;
26620;SDS011;14253;44.840;10.444;2023-03-16T10:27:14;11.07;;;4.00;;
26620;SDS011;14253;44.840;10.444;2023-03-16T10:29:47;5.47;;;3.97;;
26620;SDS011;14253;44.840;10.444;2023-03-16T10:32:14;4.88;;;3.05;;
26620;SDS011;14253;44.840;10.444;2023-03-16T10:34:44;7.18;;;2.75;;
26620;SDS011;14253;44.840;10.444;2023-03-16T10:37:17;7.97;;;3.42;;
26620;SDS011;14253;44.840;10.444;2023-03-16T10:39:46;9.90;;;3.05;;
26620;SDS011;14253;44.840;10.444;2023-03-16T10:42:14;4.90;;;2.85;;
26620;SDS011;14253;44.840;10.444;2023-03-16T10:44:43;5.50;;;3.00;;
26620;SDS011;14253;44.840;10.444;2023-03-16T10:47:21;5.55;;;2.80;;
26620;SDS011;14253;44.840;10.444;2023-03-16T10:49:48;4.80;;;2.58;;
26620;SDS011;14253;44.840;10.444;2023-03-16T10:54:48;3.42;;;1.83;;
26620;SDS011;14253;44.840;10.444;2023-03-16T10:57:32;5.82;;;2.17;;
26620;SDS011;14253;44.840;10.444;2023-03-16T11:00:04;4.28;;;2.08;;
26620;SDS011;14253;44.840;10.444;2023-03-16T11:02:34;5.22;;;2.10;;
26620;SDS011;14253;44.840;10.444;2023-03-16T11:07:48;7.35;;;1.45;;
26620;SDS011;14253;44.840;10.444;2023-03-16T11:10:35;3.40;;;1.02;;
26620;SDS011;14253;44.840;10.444;2023-03-16T11:13:12;6.07;;;1.25;;
26620;SDS011;14253;44.840;10.444;2023-03-16T11:18:15;4.20;;;0.90;;
26620;SDS011;14253;44.840;10.444;2023-03-16T11:21:07;1.70;;;0.90;;
26620;SDS011;14253;44.840;10.444;2023-03-16T11:23:44;3.95;;;1.13;;
26620;SDS011;14253;44.840;10.444;2023-03-16T11:26:20;2.63;;;0.73;;
26620;SDS011;14253;44.840;10.444;2023-03-16T11:28:54;1.00;;;0.63;;
26620;SDS011;14253;44.840;10.444;2023-03-16T11:31:36;1.45;;;0.80;;
26620;SDS011;14253;44.840;10.444;2023-03-16T11:34:15;4.93;;;0.80;;
26620;SDS011;14253;44.840;10.444;2023-03-16T11:45:22;1.75;;;1.00;;
26620;SDS011;14253;44.840;10.444;2023-03-16T11:48:05;1.45;;;0.80;;
26620;SDS011;14253;44.840;10.444;2023-03-16T11:51:08;2.05;;;1.15;;
26620;SDS011;14253;44.840;10.444;2023-03-16T11:56:32;2.00;;;0.98;;
26620;SDS011;14253;44.840;10.444;2023-03-16T12:02:25;1.50;;;0.80;;
26620;SDS011;14253;44.840;10.444;2023-03-16T12:07:55;1.52;;;0.90;;
26620;SDS011;14253;44.840;10.444;2023-03-16T12:10:44;2.80;;;1.10;;
26620;SDS011;14253;44.840;10.444;2023-03-16T12:16:25;2.72;;;1.05;;
26620;SDS011;14253;44.840;10.444;2023-03-16T12:19:36;4.18;;;1.08;;
26620;SDS011;14253;44.840;10.444;2023-03-16T12:22:22;3.05;;;1.50;;
26620;SDS011;14253;44.840;10.444;2023-03-16T12:25:01;1.70;;;1.10;;
26620;SDS011;14253;44.840;10.444;2023-03-16T12:27:30;3.65;;;1.20;;
26620;SDS011;14253;44.840;10.444;2023-03-16T12:30:05;4.88;;;1.40;;
26620;SDS011;14253;44.840;10.444;2023-03-16T12:32:54;2.47;;;1.45;;
26620;SDS011;14253;44.840;10.444;2023-03-16T12:41:38;2.75;;;1.27;;
26620;SDS011;14253;44.840;10.444;2023-03-16T12:44:17;2.15;;;1.33;;
26620;SDS011;14253;44.840;10.444;2023-03-16T12:49:52;2.40;;;1.27;;
26620;SDS011;14253;44.840;10.444;2023-03-16T12:52:20;3.00;;;1.35;;
26620;SDS011;14253;44.840;10.444;2023-03-16T12:54:50;3.90;;;1.40;;
26620;SDS011;14253;44.840;10.444;2023-03-16T12:57:38;2.75;;;1.70;;
26620;SDS011;14253;44.840;10.444;2023-03-16T13:00:09;4.30;;;1.52;;
26620;SDS011;14253;44.840;10.444;2023-03-16T13:02:37;4.90;;;1.60;;
26620;SDS011;14253;44.840;10.444;2023-03-16T13:05:14;3.33;;;1.60;;
26620;SDS011;14253;44.840;10.444;2023-03-16T13:07:51;3.33;;;1.30;;
26620;SDS011;14253;44.840;10.444;2023-03-16T13:10:34;4.15;;;1.40;;
26620;SDS011;14253;44.840;10.444;2023-03-16T13:13:20;3.50;;;1.55;;
26620;SDS011;14253;44.840;10.444;2023-03-16T13:15:49;4.10;;;1.40;;
26620;SDS011;14253;44.840;10.444;2023-03-16T13:18:46;4.20;;;1.60;;
26620;SDS011;14253;44.840;10.444;2023-03-16T13:21:13;3.95;;;1.45;;
26620;SDS011;14253;44.840;10.444;2023-03-16T13:23:46;4.18;;;1.40;;
26620;SDS011;14253;44.840;10.444;2023-03-16T13:26:35;2.88;;;0.95;;
26620;SDS011;14253;44.840;10.444;2023-03-16T13:31:57;3.95;;;1.40;;
26620;SDS011;14253;44.840;10.444;2023-03-16T13:34:26;3.00;;;1.20;;
26620;SDS011;14253;44.840;10.444;2023-03-16T13:36:56;2.95;;;1.50;;
26620;SDS011;14253;44.840;10.444;2023-03-16T13:39:24;2.50;;;1.40;;
26620;SDS011;14253;44.840;10.444;2023-03-16T13:41:53;5.68;;;1.30;;
26620;SDS011;14253;44.840;10.444;2023-03-16T13:44:41;3.15;;;1.60;;
26620;SDS011;14253;44.840;10.444;2023-03-16T13:47:07;3.40;;;1.40;;
26620;SDS011;14253;44.840;10.444;2023-03-16T13:54:58;2.97;;;1.10;;
26620;SDS011;14253;44.840;10.444;2023-03-16T13:57:26;3.95;;;1.20;;
26620;SDS011;14253;44.840;10.444;2023-03-16T14:00:06;3.72;;;1.08;;
26620;SDS011;14253;44.840;10.444;2023-03-16T14:02:45;5.40;;;1.40;;
26620;SDS011;14253;44.840;10.444;2023-03-16T14:05:20;2.78;;;1.17;;
26620;SDS011;14253;44.840;10.444;2023-03-16T14:07:51;3.25;;;1.63;;
26620;SDS011;14253;44.840;10.444;2023-03-16T14:10:18;8.85;;;1.42;;
26620;SDS011;14253;44.840;10.444;2023-03-16T14:12:49;3.45;;;1.40;;
26620;SDS011;14253;44.840;10.444;2023-03-16T14:15:16;3.90;;;1.63;;
26620;SDS011;14253;44.840;10.444;2023-03-16T14:17:43;6.57;;;1.70;;
26620;SDS011;14253;44.840;10.444;2023-03-16T14:20:21;3.88;;;1.20;;
26620;SDS011;14253;44.840;10.444;2023-03-16T14:22:52;6.22;;;1.83;;
26620;SDS011;14253;44.840;10.444;2023-03-16T14:25:19;3.70;;;1.40;;
26620;SDS011;14253;44.840;10.444;2023-03-16T14:27:58;3.15;;;1.30;;
26620;SDS011;14253;44.840;10.444;2023-03-16T14:30:26;2.85;;;1.30;;
26620;SDS011;14253;44.840;10.444;2023-03-16T14:32:57;5.38;;;1.75;;
26620;SDS011;14253;44.840;10.444;2023-03-16T14:35:26;4.22;;;1.75;;
26620;SDS011;14253;44.840;10.444;2023-03-16T14:40:56;2.78;;;1.55;;
26620;SDS011;14253;44.840;10.444;2023-03-16T14:43:32;2.88;;;1.30;;
26620;SDS011;14253;44.840;10.444;2023-03-16T14:46:05;3.10;;;1.40;;
26620;SDS011;14253;44.840;10.444;2023-03-16T14:48:33;2.80;;;1.40;;
26620;SDS011;14253;44.840;10.444;2023-03-16T14:51:00;2.55;;;1.30;;
26620;SDS011;14253;44.840;10.444;2023-03-16T14:53:30;2.85;;;1.65;;
26620;SDS011;14253;44.840;10.444;2023-03-16T14:55:57;3.17;;;1.67;;
26620;SDS011;14253;44.840;10.444;2023-03-16T14:58:23;5.30;;;1.75;;
26620;SDS011;14253;44.840;10.444;2023-03-16T15:00:50;3.72;;;1.83;;
26620;SDS011;14253;44.840;10.444;2023-03-16T15:03:23;3.53;;;1.75;;
26620;SDS011;14253;44.840;10.444;2023-03-16T15:05:57;5.28;;;1.88;;
26620;SDS011;14253;44.840;10.444;2023-03-16T15:08:26;7.72;;;1.50;;
26620;SDS011;14253;44.840;10.444;2023-03-16T15:10:56;4.05;;;1.70;;
26620;SDS011;14253;44.840;10.444;2023-03-16T15:13:25;3.70;;;1.98;;
26620;SDS011;14253;44.840;10.444;2023-03-16T15:16:11;4.72;;;1.67;;
26620;SDS011;14253;44.840;10.444;2023-03-16T15:18:38;2.15;;;1.40;;
26620;SDS011;14253;44.840;10.444;2023-03-16T15:21:08;2.50;;;1.48;;
26620;SDS011;14253;44.840;10.444;2023-03-16T15:23:37;4.55;;;1.70;;
26620;SDS011;14253;44.840;10.444;2023-03-16T15:26:04;8.60;;;1.77;;
26620;SDS011;14253;44.840;10.444;2023-03-16T15:28:32;4.35;;;1.67;;
26620;SDS011;14253;44.840;10.444;2023-03-16T15:31:00;9.02;;;2.10;;
26620;SDS011;14253;44.840;10.444;2023-03-16T15:33:27;4.65;;;2.13;;
26620;SDS011;14253;44.840;10.444;2023-03-16T15:35:54;2.70;;;1.33;;
26620;SDS011;14253;44.840;10.444;2023-03-16T15:38:33;7.25;;;2.10;;
26620;SDS011;14253;44.840;10.444;2023-03-16T15:41:07;5.38;;;1.38;;
26620;SDS011;14253;44.840;10.444;2023-03-16T15:43:34;5.47;;;1.90;;
26620;SDS011;14253;44.840;10.444;2023-03-16T15:46:01;4.07;;;1.70;;
26620;SDS011;14253;44.840;10.444;2023-03-16T15:48:29;3.03;;;1.75;;
26620;SDS011;14253;44.840;10.444;2023-03-16T15:50:56;4.57;;;1.90;;
26620;SDS011;14253;44.840;10.444;2023-03-16T15:53:29;5.28;;;1.95;;
26620;SDS011;14253;44.840;10.444;2023-03-16T15:55:59;4.47;;;1.85;;
26620;SDS011;14253;44.840;10.444;2023-03-16T15:58:30;5.75;;;1.70;;
26620;SDS011;14253;44.840;10.444;2023-03-16T16:00:58;3.78;;;1.58;;
26620;SDS011;14253;44.840;10.444;2023-03-16T16:03:26;5.20;;;2.10;;
26620;SDS011;14253;44.840;10.444;2023-03-16T16:05:53;4.30;;;1.70;;
26620;SDS011;14253;44.840;10.444;2023-03-16T16:08:21;3.45;;;1.70;;